Time;durP1;ratioP1;P1;durP2;ratioP2;P2;SDS_P1;SDS_P2;PMS_P1;PMS_P2;Temp;Humidity;BMP_temperature;BMP_pressure;BME280_temperature;BME280_humidity;BME280_pressure;Samples;Min_cycle;Max_cycle;Signal;HPM_P1;HPM_P2
2022/07/11 00:00:11;;;;;;;0.50;0.40;;;10.80;1.40;;;12.14;100.00;96030.81;646491;216;31484;-75
2022/07/11 00:02:53;;;;;;;0.90;0.60;;;10.90;1.40;;;12.20;100.00;96032.34;651470;212;34424;-75
2022/07/11 00:05:34;;;;;;;0.80;0.70;;;11.00;1.40;;;12.24;100.00;96031.16;646633;216;31474;-75
2022/07/11 00:08:16;;;;;;;0.50;0.50;;;11.00;1.40;;;12.37;100.00;96023.59;651392;216;31485;-75
2022/07/11 00:11:01;;;;;;;0.60;0.50;;;11.00;1.40;;;12.34;100.00;96011.98;645681;212;31489;-75
2022/07/11 00:13:43;;;;;;;0.80;0.50;;;11.00;1.40;;;12.28;100.00;96016.06;649105;216;31510;-76
2022/07/11 00:16:24;;;;;;;0.40;0.30;;;11.10;1.40;;;12.32;100.00;96013.48;652861;212;31820;-75
2022/07/11 00:19:06;;;;;;;0.80;0.50;;;11.10;1.40;;;12.31;100.00;96000.29;646244;216;31571;-75
2022/07/11 00:21:48;;;;;;;0.40;0.40;;;11.10;1.40;;;12.45;100.00;96005.50;645515;216;31461;-75
2022/07/11 00:24:30;;;;;;;1.20;0.50;;;11.10;1.40;;;12.39;100.00;96008.88;649400;216;34489;-75
2022/07/11 00:27:13;;;;;;;0.60;0.50;;;11.20;1.40;;;12.34;100.00;96002.95;647576;216;32360;-75
2022/07/11 00:29:53;;;;;;;1.00;0.70;;;11.20;1.40;;;12.40;100.00;96005.00;645523;212;32048;-75
2022/07/11 00:32:35;;;;;;;0.40;0.37;;;11.20;1.40;;;12.41;100.00;96000.23;650983;216;34629;-76
2022/07/11 00:35:54;;;;;;;0.50;0.40;;;11.30;1.40;;;12.44;100.00;96000.19;645945;216;42503;-75
2022/07/11 00:38:36;;;;;;;0.73;0.50;;;11.20;1.40;;;12.48;100.00;95999.82;646288;216;32478;-75
2022/07/11 00:41:21;;;;;;;0.70;0.40;;;11.30;1.40;;;12.51;100.00;95998.77;650863;216;31489;-75
2022/07/11 00:44:04;;;;;;;0.40;0.23;;;11.30;1.40;;;12.58;100.00;95994.44;647606;212;31609;-75
2022/07/11 00:46:45;;;;;;;0.60;0.50;;;11.40;1.40;;;12.59;100.00;95996.48;647468;216;32984;-75
2022/07/11 00:52:05;;;;;;;0.40;0.40;;;11.50;1.40;;;12.65;100.00;95991.32;643600;207;40199;-75
2022/07/11 00:54:51;;;;;;;1.30;0.70;;;11.50;1.40;;;12.74;100.00;95994.02;650375;212;42085;-74
2022/07/11 00:57:32;;;;;;;0.90;0.50;;;11.50;1.40;;;12.85;100.00;95989.55;653668;216;31697;-75
2022/07/11 01:00:17;;;;;;;1.80;0.60;;;11.60;1.40;;;12.77;100.00;95985.09;648633;216;36361;-75
2022/07/11 01:02:58;;;;;;;1.60;0.50;;;11.60;1.40;;;12.79;100.00;95986.83;627127;222;31898;-76
2022/07/11 01:05:40;;;;;;;0.90;0.65;;;11.70;1.40;;;12.86;100.00;95992.10;644849;216;33542;-76
2022/07/11 01:08:22;;;;;;;0.40;0.30;;;11.70;1.40;;;12.88;100.00;95991.30;649759;216;32064;-77
2022/07/11 01:11:04;;;;;;;0.52;0.40;;;11.70;1.40;;;12.90;100.00;95983.08;646387;216;41724;-75
2022/07/11 01:13:45;;;;;;;0.50;0.40;;;11.70;1.40;;;12.99;100.00;95982.99;623385;222;42551;-75
2022/07/11 01:16:27;;;;;;;0.50;0.40;;;11.70;1.40;;;12.98;100.00;95982.08;646587;212;35534;-76
2022/07/11 01:19:09;;;;;;;1.23;0.70;;;11.80;1.40;;;12.99;100.00;95982.13;649176;216;31456;-75
2022/07/11 01:21:51;;;;;;;0.40;0.30;;;11.80;1.40;;;13.04;100.00;95981.05;645902;216;42113;-75
2022/07/11 01:24:32;;;;;;;0.50;0.40;;;11.80;1.40;;;12.97;100.00;95980.20;648555;212;42087;-75
2022/07/11 01:27:17;;;;;;;0.50;0.40;;;11.70;1.40;;;13.11;100.00;95978.05;653071;216;42093;-75
2022/07/11 01:29:58;;;;;;;0.50;0.30;;;11.80;1.40;;;13.09;100.00;95978.38;643720;216;40691;-74
2022/07/11 01:32:40;;;;;;;1.10;0.50;;;11.90;1.40;;;13.16;100.00;95975.00;642888;216;31657;-75
2022/07/11 01:35:52;;;;;;;0.40;0.40;;;11.90;1.40;;;13.11;100.00;95976.37;643885;216;33282;-75
2022/07/11 01:38:37;;;;;;;1.00;0.70;;;11.90;1.40;;;13.16;100.00;95974.95;646777;212;31497;-76
2022/07/11 01:41:18;;;;;;;0.40;0.30;;;11.90;1.40;;;13.27;100.00;95974.05;645197;212;31484;-76
2022/07/11 01:44:00;;;;;;;3.50;0.50;;;11.90;1.40;;;13.33;100.00;95967.90;649179;216;42854;-76
2022/07/11 01:46:42;;;;;;;0.80;0.55;;;12.00;1.40;;;13.33;100.00;95967.63;646966;216;42700;-76
2022/07/11 01:49:29;;;;;;;0.60;0.60;;;12.00;1.40;;;13.41;100.00;95967.37;649546;216;31586;-76
2022/07/11 01:52:06;;;;;;;0.60;0.50;;;12.10;1.40;;;13.44;100.00;95972.41;645068;216;42231;-76
2022/07/11 01:54:48;;;;;;;0.50;0.47;;;12.10;1.40;;;13.45;100.00;95963.38;647178;216;32058;-77
2022/07/11 01:57:30;;;;;;;1.90;0.60;;;12.10;1.40;;;13.45;100.00;95960.63;645823;212;41177;-76
2022/07/11 02:00:15;;;;;;;0.40;0.30;;;12.10;1.40;;;13.41;100.00;95959.52;616565;226;31851;-75
2022/07/11 02:02:57;;;;;;;0.83;0.40;;;12.10;1.40;;;13.43;100.00;95959.58;646590;216;42139;-76
2022/07/11 02:05:39;;;;;;;0.80;0.40;;;12.20;1.40;;;13.45;100.00;95950.62;652948;212;31461;-76
2022/07/11 02:08:21;;;;;;;0.50;0.50;;;12.20;1.40;;;13.51;100.00;95952.90;620797;222;41156;-76
2022/07/11 02:11:03;;;;;;;0.50;0.30;;;12.20;1.40;;;13.51;100.00;95951.03;647266;216;31503;-76
2022/07/11 02:13:46;;;;;;;0.60;0.40;;;12.30;1.40;;;13.46;100.00;95948.44;624040;222;32079;-77
2022/07/11 02:16:29;;;;;;;0.70;0.50;;;12.20;1.40;;;13.60;100.00;95951.65;645374;216;31669;-76
2022/07/11 02:19:13;;;;;;;0.50;0.30;;;12.20;1.40;;;13.68;100.00;95955.33;646446;212;31568;-76
2022/07/11 02:21:55;;;;;;;0.50;0.30;;;12.30;1.40;;;13.71;100.00;95948.55;646717;216;42138;-75
2022/07/11 02:27:15;;;;;;;1.90;0.60;;;12.30;1.40;;;13.62;100.00;95947.45;621185;222;32057;-77
2022/07/11 02:29:57;;;;;;;0.60;0.60;;;12.20;1.40;;;13.54;100.00;95952.55;648147;212;42100;-75
2022/07/11 02:32:42;;;;;;;0.50;0.50;;;12.20;1.40;;;13.77;100.00;95954.28;651205;212;31502;-76
2022/07/11 02:35:51;;;;;;;0.90;0.55;;;12.30;1.40;;;13.72;100.00;95952.31;650875;216;32190;-75
2022/07/11 02:38:33;;;;;;;0.60;0.40;;;12.30;1.40;;;13.62;100.00;95948.23;650728;212;31489;-76
2022/07/11 02:41:18;;;;;;;0.40;0.30;;;12.30;1.40;;;13.74;100.00;95949.33;647072;216;42557;-75
2022/07/11 02:43:59;;;;;;;0.80;0.40;;;12.30;1.40;;;13.73;100.00;95948.66;647365;216;31489;-75
2022/07/11 02:46:41;;;;;;;0.50;0.50;;;12.30;1.40;;;13.47;100.00;95947.20;632919;221;42292;-76
2022/07/11 02:51:57;;;;;;;1.20;0.60;;;12.10;1.40;;;13.42;100.00;95944.23;621676;225;31905;-74
2022/07/11 02:54:38;;;;;;;0.50;0.40;;;12.10;1.40;;;13.36;100.00;95943.55;644648;216;31525;-75
2022/07/11 02:57:20;;;;;;;0.90;0.50;;;12.00;1.40;;;13.42;100.00;95944.68;649492;216;42111;-75
2022/07/11 03:00:06;;;;;;;0.70;0.50;;;12.00;1.40;;;13.45;100.00;95943.28;646527;216;32119;-77
2022/07/11 03:02:51;;;;;;;1.10;0.40;;;12.20;1.40;;;13.46;100.00;95939.55;648916;213;42191;-76
2022/07/11 03:05:33;;;;;;;0.50;0.32;;;12.20;1.40;;;13.56;100.00;95939.80;648050;216;42120;-75
2022/07/11 03:08:14;;;;;;;0.80;0.50;;;12.20;1.40;;;13.50;100.00;95937.55;653552;216;42286;-75
2022/07/11 03:10:57;;;;;;;1.40;0.80;;;12.20;1.40;;;13.53;100.00;95938.55;646104;216;31543;-76
2022/07/11 03:13:38;;;;;;;0.80;0.35;;;12.30;1.40;;;13.57;100.00;95937.06;647543;216;31554;-76
2022/07/11 03:16:23;;;;;;;0.60;0.50;;;12.30;1.40;;;13.55;100.00;95937.66;647148;216;32821;-76
2022/07/11 03:19:04;;;;;;;0.62;0.45;;;12.30;1.40;;;13.51;100.00;95939.92;646293;212;42124;-75
2022/07/11 03:21:46;;;;;;;0.80;0.70;;;12.30;1.40;;;13.59;100.00;95938.27;648213;212;42123;-75
2022/07/11 03:27:05;;;;;;;1.10;0.60;;;12.40;1.40;;;13.71;100.00;95939.65;649118;216;31669;-75
2022/07/11 03:29:47;;;;;;;0.50;0.50;;;12.40;1.40;;;13.67;100.00;95941.99;649671;216;31584;-75
2022/07/11 03:32:29;;;;;;;0.60;0.40;;;12.40;1.40;;;13.70;100.00;95938.43;644892;212;31474;-76
2022/07/11 03:35:51;;;;;;;0.90;0.60;;;12.40;1.40;;;13.64;100.00;95937.94;645766;212;31490;-75
2022/07/11 03:38:33;;;;;;;0.80;0.70;;;12.40;1.40;;;13.69;100.00;95940.78;646717;216;31468;-75
2022/07/11 03:41:14;;;;;;;0.60;0.40;;;12.30;1.40;;;13.70;100.00;95937.50;623285;222;32549;-75
2022/07/11 03:43:56;;;;;;;0.60;0.40;;;12.30;1.40;;;13.59;100.00;95941.70;650308;212;31946;-76
2022/07/11 03:46:38;;;;;;;0.40;0.32;;;12.30;1.40;;;13.61;100.00;95940.23;629787;217;31802;-77
2022/07/11 03:49:20;;;;;;;0.60;0.50;;;12.30;1.40;;;13.55;100.00;95938.45;649337;212;31688;-74
2022/07/11 03:52:01;;;;;;;0.60;0.50;;;12.30;1.40;;;13.54;100.00;95936.30;616711;226;31866;-74
2022/07/11 03:59:52;;;;;;;0.45;0.40;;;12.30;1.40;;;13.62;100.00;95931.55;648502;216;31613;-74
2022/07/11 04:02:36;;;;;;;0.50;0.30;;;12.40;1.40;;;13.78;100.00;95934.71;648528;216;31494;-74
2022/07/11 04:05:18;;;;;;;0.50;0.43;;;12.40;1.40;;;13.87;100.00;95937.52;619502;226;31798;-75
2022/07/11 04:08:00;;;;;;;0.90;0.30;;;12.50;1.40;;;13.98;100.00;95935.72;646533;216;31641;-74
2022/07/11 04:10:41;;;;;;;0.50;0.40;;;12.50;1.40;;;14.03;100.00;95932.19;645380;216;31466;-73
2022/07/11 04:13:23;;;;;;;0.52;0.50;;;12.50;1.40;;;13.95;100.00;95931.55;645699;216;31477;-74
2022/07/11 04:16:05;;;;;;;0.62;0.57;;;12.50;1.40;;;13.91;100.00;95935.39;640867;216;31773;-74
2022/07/11 04:18:47;;;;;;;0.60;0.32;;;12.50;1.40;;;13.88;100.00;95935.27;647948;212;31458;-74
2022/07/11 04:21:28;;;;;;;0.90;0.50;;;12.50;1.40;;;13.92;100.00;95939.51;619431;222;31966;-74
2022/07/11 04:24:10;;;;;;;1.00;0.50;;;12.50;1.40;;;13.90;100.00;95941.58;645641;212;31494;-75
2022/07/11 04:26:52;;;;;;;0.55;0.40;;;12.50;1.40;;;13.90;100.00;95942.23;618931;222;31817;-74
2022/07/11 04:29:33;;;;;;;0.55;0.40;;;12.50;1.40;;;13.90;100.00;95939.05;647554;216;31511;-75
2022/07/11 04:32:15;;;;;;;2.30;0.70;;;12.60;1.40;;;14.03;100.00;95938.85;616851;225;31825;-74
2022/07/11 04:35:51;;;;;;;0.82;0.60;;;12.80;1.40;;;14.19;100.00;95937.62;646397;216;31514;-74
2022/07/11 04:38:35;;;;;;;0.88;0.80;;;12.80;1.40;;;14.34;100.00;95942.89;618434;226;42691;-75
2022/07/11 04:41:17;;;;;;;0.70;0.70;;;12.90;1.40;;;14.43;100.00;95943.31;645635;215;42113;-75
2022/07/11 04:43:59;;;;;;;0.98;0.50;;;13.00;1.40;;;14.27;100.00;95947.00;652692;216;31544;-74
2022/07/11 04:46:40;;;;;;;0.50;0.40;;;12.90;1.40;;;14.26;100.00;95944.18;648601;212;31857;-74
2022/07/11 04:49:22;;;;;;;0.50;0.40;;;12.90;1.40;;;14.24;100.00;95945.65;647665;212;31504;-74
2022/07/11 04:52:04;;;;;;;0.57;0.43;;;12.90;1.40;;;14.13;100.00;95939.63;647688;216;32165;-76
2022/07/11 04:54:46;;;;;;;0.80;0.62;;;12.90;1.40;;;14.19;100.00;95945.68;646650;216;31481;-74
2022/07/11 04:57:28;;;;;;;1.60;0.50;;;13.00;1.40;;;14.23;100.00;95944.83;652613;213;32045;-74
2022/07/11 05:00:10;;;;;;;0.80;0.40;;;13.00;1.40;;;14.36;100.00;95944.65;648927;216;31577;-74
2022/07/11 05:02:52;;;;;;;0.40;0.30;;;13.10;1.40;;;14.57;100.00;95950.70;645791;212;32384;-75
2022/07/11 05:05:33;;;;;;;0.40;0.40;;;13.30;1.40;;;14.57;100.00;95952.06;650723;216;31470;-75
2022/07/11 05:08:15;;;;;;;0.80;0.70;;;13.20;1.40;;;14.60;100.00;95954.75;616493;226;31950;-74
2022/07/11 05:10:57;;;;;;;0.80;0.60;;;13.20;1.40;;;14.64;100.00;95963.04;648110;212;31486;-74
2022/07/11 05:13:38;;;;;;;0.88;0.40;;;13.30;1.40;;;14.74;100.00;95960.32;649247;216;31496;-74
2022/07/11 05:16:20;;;;;;;1.00;0.77;;;13.50;1.40;;;15.01;100.00;95964.80;646325;216;31475;-74
2022/07/11 05:19:05;;;;;;;0.70;0.47;;;13.60;1.40;;;15.09;100.00;95964.01;645971;213;31603;-75
2022/07/11 05:21:46;;;;;;;1.42;0.60;;;13.70;1.40;;;15.38;100.00;95963.94;628141;217;31997;-74
2022/07/11 05:24:28;;;;;;;0.40;0.40;;;13.90;1.40;;;15.59;100.00;95972.31;647040;212;31808;-75
2022/07/11 05:27:10;;;;;;;1.00;0.60;;;14.00;1.40;;;15.68;100.00;95974.73;646718;216;31460;-75
2022/07/11 05:29:52;;;;;;;0.65;0.40;;;14.20;1.40;;;15.70;100.00;95975.11;621076;226;31823;-74
2022/07/11 05:32:36;;;;;;;1.40;0.80;;;14.30;1.40;;;15.87;100.00;95977.23;641588;217;31484;-74
2022/07/11 05:35:50;;;;;;;0.80;0.60;;;14.40;1.40;;;15.94;100.00;95977.83;622445;226;31948;-74
2022/07/11 05:38:32;;;;;;;1.00;0.60;;;14.30;1.40;;;16.36;100.00;95976.33;644203;216;31467;-74
2022/07/11 05:41:14;;;;;;;0.90;0.60;;;14.60;1.40;;;16.22;100.00;95975.91;644687;216;31526;-74
2022/07/11 05:43:58;;;;;;;1.23;0.50;;;14.60;1.40;;;16.08;100.00;95981.20;646633;216;31515;-74
2022/07/11 05:46:40;;;;;;;0.60;0.40;;;14.50;1.40;;;15.56;100.00;95984.36;644879;212;31507;-74
2022/07/11 05:49:23;;;;;;;0.68;0.50;;;14.20;1.40;;;15.41;100.00;95985.64;620503;226;32042;-75
2022/07/11 05:52:04;;;;;;;1.62;0.73;;;14.10;1.40;;;15.38;100.00;95987.48;646494;216;31489;-74
2022/07/11 05:54:45;;;;;;;0.60;0.50;;;14.10;1.40;;;15.34;100.00;95986.23;648067;216;31579;-75
2022/07/11 05:57:27;;;;;;;0.90;0.50;;;14.20;1.40;;;15.30;100.00;95984.02;644720;216;31648;-74
2022/07/11 06:04:46;;;;;;;1.27;0.50;;;14.20;1.40;;;15.49;100.00;95989.22;645587;216;31738;-75
2022/07/11 06:10:15;;;;;;;1.00;0.50;;;14.60;1.40;;;15.66;100.00;95981.95;650313;212;31506;-74
2022/07/11 06:12:59;;;;;;;0.50;0.50;;;14.70;1.40;;;15.79;100.00;95983.91;644756;216;31511;-74
2022/07/11 06:15:41;;;;;;;1.10;0.40;;;14.80;1.40;;;15.89;100.00;95981.55;647615;216;31477;-74
2022/07/11 06:18:23;;;;;;;3.67;0.40;;;14.80;1.40;;;15.93;100.00;95982.38;647358;216;32099;-74
2022/07/11 06:21:05;;;;;;;2.00;0.40;;;15.00;1.40;;;16.09;100.00;95979.06;646596;212;31539;-74
2022/07/11 06:23:46;;;;;;;0.50;0.50;;;15.10;1.40;;;16.09;100.00;95979.72;648957;212;31819;-74
2022/07/11 06:26:28;;;;;;;1.00;0.40;;;15.20;1.40;;;16.20;100.00;95981.67;647671;216;31456;-74
2022/07/11 06:29:10;;;;;;;1.30;0.50;;;15.30;1.40;;;16.35;100.00;95979.11;647389;216;32157;-74
2022/07/11 06:31:52;;;;;;;0.90;0.70;;;15.40;1.40;;;16.41;100.00;95976.00;647982;216;31624;-74
2022/07/11 06:35:52;;;;;;;1.48;0.80;;;15.50;1.40;;;16.41;98.16;95979.29;648557;216;42090;-75
2022/07/11 06:38:33;;;;;;;1.20;0.40;;;15.50;1.40;;;16.48;100.00;95977.94;645047;216;31520;-76
2022/07/11 06:41:15;;;;;;;3.85;0.60;;;15.60;1.40;;;16.49;100.00;95979.13;645690;216;31549;-74
2022/07/11 06:43:57;;;;;;;1.40;0.60;;;15.60;1.40;;;16.54;100.00;95982.13;649346;212;31932;-74
2022/07/11 06:46:38;;;;;;;2.22;0.60;;;15.70;1.40;;;16.66;100.00;95979.00;653299;216;31482;-75
2022/07/11 06:49:21;;;;;;;2.30;0.73;;;15.80;1.40;;;16.65;99.96;95974.63;647933;216;31470;-74
2022/07/11 06:52:05;;;;;;;0.40;0.40;;;15.80;1.40;;;16.80;100.00;95974.70;643306;212;31517;-74
2022/07/11 06:54:46;;;;;;;0.70;0.50;;;15.90;1.40;;;16.85;100.00;95971.61;646097;216;31455;-74
2022/07/11 06:57:28;;;;;;;1.83;0.43;;;15.90;1.40;;;16.88;100.00;95973.75;649212;216;31576;-74
2022/07/11 07:00:13;;;;;;;0.75;0.50;;;16.00;1.40;;;16.84;98.18;95974.42;645513;216;31465;-74
2022/07/11 07:02:56;;;;;;;1.10;0.50;;;15.90;1.40;;;16.85;99.56;95973.38;646740;216;31490;-75
2022/07/11 07:05:41;;;;;;;0.47;0.40;;;16.00;1.40;;;16.88;97.83;95973.66;645207;216;31522;-75
2022/07/11 07:08:23;;;;;;;2.20;0.50;;;16.00;1.40;;;17.04;100.00;95972.62;646633;216;31495;-74
2022/07/11 07:11:05;;;;;;;1.20;0.40;;;16.10;1.40;;;17.29;98.32;95972.16;645254;216;31484;-74
2022/07/11 07:13:49;;;;;;;1.00;0.50;;;16.40;1.40;;;17.36;96.30;95974.30;645677;216;31697;-74
2022/07/11 07:16:28;;;;;;;1.80;0.43;;;16.40;1.40;;;17.37;96.04;95973.41;617674;226;31881;-75
2022/07/11 07:19:10;;;;;;;0.75;0.47;;;16.50;1.40;;;17.44;94.58;95971.77;647016;212;31560;-74
2022/07/11 07:21:52;;;;;;;2.28;0.60;;;16.50;1.40;;;17.35;93.16;95972.72;646869;216;31477;-74
2022/07/11 07:24:33;;;;;;;0.50;0.50;;;16.50;1.40;;;17.57;93.26;95971.16;646115;216;31467;-74
2022/07/11 07:27:15;;;;;;;0.88;0.60;;;16.70;1.40;;;17.57;91.42;95973.12;618984;222;31796;-74
2022/07/11 07:29:57;;;;;;;0.57;0.47;;;16.70;1.40;;;17.74;92.32;95972.33;645703;216;31488;-74
2022/07/11 07:32:38;;;;;;;0.50;0.40;;;16.90;1.40;;;17.93;91.82;95965.62;646418;216;31510;-74
2022/07/11 07:35:51;;;;;;;2.15;0.50;;;17.10;1.40;;;18.09;89.00;95968.59;630935;220;31713;-74
2022/07/11 07:38:33;;;;;;;1.30;0.60;;;17.10;1.40;;;17.96;89.44;95973.70;646691;216;31472;-74
2022/07/11 07:41:15;;;;;;;1.60;0.40;;;17.10;1.40;;;18.21;91.00;95967.78;646533;212;31499;-74
2022/07/11 07:43:56;;;;;;;0.62;0.47;;;17.40;1.40;;;18.36;90.12;95965.57;645996;212;31498;-75
2022/07/11 07:46:41;;;;;;;0.50;0.40;;;17.40;1.40;;;18.30;86.84;95967.16;646185;216;32100;-75
2022/07/11 07:49:23;;;;;;;0.80;0.30;;;17.40;1.40;;;18.24;88.45;95966.48;647705;216;32128;-76
2022/07/11 07:52:05;;;;;;;0.70;0.47;;;17.20;1.40;;;18.43;88.61;95966.75;646884;212;31891;-74
2022/07/11 07:54:49;;;;;;;0.50;0.30;;;17.30;1.40;;;18.56;86.96;95972.22;645065;212;31665;-76
2022/07/11 07:57:31;;;;;;;0.88;0.50;;;17.50;1.40;;;18.74;85.51;95965.47;645457;212;31519;-74
2022/07/11 08:03:08;;;;;;;1.00;0.90;;;17.50;1.40;;;18.62;83.74;95954.59;646511;212;32537;-74
2022/07/11 08:05:48;;;;;;;0.50;0.30;;;17.70;1.40;;;18.75;81.76;95952.83;646981;216;31644;-74
2022/07/11 08:08:30;;;;;;;0.50;0.30;;;17.80;1.40;;;19.37;81.58;95955.06;646708;216;31826;-75
2022/07/11 08:11:12;;;;;;;0.50;0.30;;;18.40;1.40;;;19.69;79.28;95960.11;645724;216;31468;-75
2022/07/11 08:13:55;;;;;;;0.60;0.50;;;18.30;1.40;;;19.83;79.10;95961.44;646536;212;31505;-74
2022/07/11 08:16:37;;;;;;;0.90;0.60;;;18.60;1.40;;;19.72;78.78;95960.20;618704;226;32180;-74
2022/07/11 08:19:18;;;;;;;0.90;0.50;;;18.30;1.40;;;19.53;80.70;95962.98;647836;216;31456;-74
2022/07/11 08:22:00;;;;;;;1.00;0.50;;;18.20;1.40;;;19.72;81.67;95957.80;645803;216;42134;-74
2022/07/11 08:24:45;;;;;;;1.00;0.60;;;18.20;1.40;;;19.74;80.76;95959.80;647009;216;31638;-74
2022/07/11 08:27:26;;;;;;;0.68;0.50;;;18.20;1.40;;;19.90;80.43;95964.14;646268;212;31502;-75
2022/07/11 08:30:09;;;;;;;2.08;0.40;;;18.30;1.40;;;20.29;78.36;95964.36;647309;216;31645;-75
2022/07/11 08:32:51;;;;;;;2.00;0.60;;;18.60;1.40;;;20.47;78.37;95965.27;645554;216;31512;-75
2022/07/11 08:35:51;;;;;;;1.37;0.50;;;18.70;1.40;;;20.41;76.78;95968.30;645573;212;31493;-75
2022/07/11 08:38:32;;;;;;;0.70;0.60;;;18.50;1.40;;;20.67;76.31;95968.22;646563;216;31497;-74
2022/07/11 08:41:14;;;;;;;0.50;0.40;;;18.70;1.40;;;20.48;77.79;95968.87;646589;216;31570;-74
2022/07/11 08:43:56;;;;;;;2.42;0.80;;;18.70;1.40;;;20.61;76.34;95970.95;618102;226;31813;-74
2022/07/11 08:46:37;;;;;;;1.80;0.60;;;18.90;1.40;;;20.84;75.10;95967.52;632269;221;32004;-75
2022/07/11 08:49:19;;;;;;;0.82;0.40;;;19.10;1.40;;;21.19;72.09;95963.92;645594;216;31557;-75
2022/07/11 08:52:01;;;;;;;1.30;0.50;;;19.10;1.40;;;21.91;77.93;95963.58;645755;216;31507;-74
2022/07/11 08:54:42;;;;;;;0.55;0.55;;;19.70;1.40;;;21.95;69.63;95965.67;648027;212;31530;-74
2022/07/11 08:57:24;;;;;;;0.57;0.40;;;19.60;1.40;;;22.65;73.18;95958.92;646582;216;31463;-76
2022/07/11 09:00:08;;;;;;;0.88;0.45;;;20.10;1.40;;;22.81;71.30;95960.65;646330;216;31482;-75
2022/07/11 09:02:49;;;;;;;0.50;0.40;;;20.10;1.40;;;22.90;71.13;95953.22;619870;226;31821;-75
2022/07/11 09:05:31;;;;;;;2.60;0.50;;;19.90;1.40;;;21.59;70.48;95957.50;646892;216;31467;-75
2022/07/11 09:08:13;;;;;;;0.60;0.40;;;19.40;1.40;;;21.63;71.62;95959.55;618936;226;31973;-74
2022/07/11 09:10:55;;;;;;;1.05;0.50;;;19.40;1.40;;;21.05;71.46;95965.97;646431;216;31501;-74
2022/07/11 09:13:37;;;;;;;0.60;0.40;;;19.00;1.40;;;21.03;71.89;95963.44;646564;216;33537;-74
2022/07/11 09:16:19;;;;;;;0.90;0.40;;;18.90;1.40;;;20.82;73.63;95964.74;646199;216;32198;-74
2022/07/11 09:19:04;;;;;;;0.80;0.30;;;18.90;1.40;;;20.45;73.58;95962.30;646305;216;31556;-74
2022/07/11 09:29:57;;;;;;;0.40;0.40;;;19.20;1.40;;;21.19;74.29;95955.28;647163;212;31492;-74
2022/07/11 09:32:56;;;;;;;1.42;0.50;;;19.30;1.40;;;21.27;71.54;95958.42;647251;216;31640;-74
2022/07/11 09:35:51;;;;;;;1.17;0.60;;;19.00;1.40;;;20.87;73.25;95963.88;646168;216;31528;-74
2022/07/11 09:38:33;;;;;;;0.50;0.30;;;19.00;1.40;;;21.26;72.67;95960.13;647815;216;31496;-74
2022/07/11 09:41:15;;;;;;;0.80;0.52;;;19.10;1.40;;;21.25;71.76;95964.22;645948;216;31649;-74
2022/07/11 09:43:56;;;;;;;0.80;0.40;;;19.20;1.40;;;20.77;72.85;95969.39;646413;216;31665;-74
2022/07/11 09:46:42;;;;;;;3.35;0.60;;;18.80;1.40;;;20.83;74.66;95969.20;647830;216;31493;-74
2022/07/11 09:49:29;;;;;;;1.52;0.60;;;19.20;1.40;;;21.30;73.25;95958.25;646201;216;31701;-74
2022/07/11 09:52:13;;;;;;;2.92;1.95;;;19.40;1.40;;;21.92;72.12;95951.44;616064;226;32847;-74
2022/07/11 09:54:59;;;;;;;1.37;0.50;;;20.00;1.40;;;22.71;69.68;95950.48;646012;216;31560;-74
2022/07/11 09:57:39;;;;;;;0.80;0.40;;;20.40;1.40;;;22.54;67.81;95950.30;646639;216;42706;-74
2022/07/11 10:00:21;;;;;;;0.50;0.40;;;20.30;1.40;;;21.61;70.90;95953.19;646808;212;32261;-74
2022/07/11 10:03:06;;;;;;;1.30;0.40;;;19.70;1.40;;;21.22;73.61;95957.95;645604;216;31494;-75
2022/07/11 10:05:50;;;;;;;2.70;0.37;;;19.30;1.40;;;20.73;76.89;95965.62;645469;216;31652;-74
2022/07/11 10:08:33;;;;;;;0.40;0.20;;;19.20;1.40;;;20.90;74.11;95964.45;646258;216;31792;-75
2022/07/11 10:11:14;;;;;;;0.40;0.30;;;19.30;1.40;;;20.86;71.55;95964.62;646255;212;31874;-75
2022/07/11 10:14:00;;;;;;;0.60;0.40;;;19.30;1.40;;;21.59;71.56;95958.08;646383;216;42144;-75
2022/07/11 10:16:49;;;;;;;0.40;0.20;;;20.30;1.40;;;23.40;64.24;95948.24;646547;216;31493;-77
2022/07/11 10:19:58;;;;;;;1.30;0.60;;;21.50;1.40;;;22.52;63.96;95955.23;647175;216;31547;-75
2022/07/11 10:22:48;;;;;;;0.40;0.30;;;20.30;1.40;;;22.02;68.58;95955.78;618397;226;31992;-75
2022/07/11 10:28:26;;;;;;;0.40;0.20;;;19.80;1.40;;;21.12;66.89;95965.55;646603;216;31509;-75
2022/07/11 10:31:07;;;;;;;0.40;0.30;;;19.10;1.40;;;21.08;67.14;95965.09;645921;216;31519;-75
2022/07/11 10:35:51;;;;;;;0.40;0.20;;;19.00;1.40;;;21.37;66.89;95962.88;646756;212;32568;-75
2022/07/11 10:38:32;;;;;;;0.80;0.30;;;19.30;1.40;;;22.28;66.04;95967.06;645963;216;31981;-76
2022/07/11 10:41:14;;;;;;;0.40;0.20;;;19.90;1.40;;;22.72;65.98;95960.55;647136;216;31487;-75
2022/07/11 10:43:56;;;;;;;0.40;0.20;;;20.40;1.40;;;22.66;67.64;95959.87;646877;212;31461;-75
2022/07/11 10:48:11;;;;;;;0.40;0.30;;;20.50;1.40;;;22.32;65.62;95962.05;646467;216;31954;-75
2022/07/11 10:50:54;;;;;;;0.40;0.20;;;20.20;1.40;;;23.05;66.04;95958.98;646389;216;31496;-75
2022/07/11 10:53:37;;;;;;;0.40;0.30;;;20.60;1.40;;;23.44;63.49;95960.44;637449;216;31758;-75
2022/07/11 10:59:14;;;;;;;0.50;0.30;;;21.20;1.40;;;23.92;63.18;95958.25;647059;216;31474;-75
2022/07/11 11:04:46;;;;;;;1.50;0.30;;;20.80;1.40;;;22.19;67.57;95961.63;645844;216;42118;-75
2022/07/11 11:07:47;;;;;;;1.10;0.30;;;20.40;1.40;;;22.27;70.05;95959.98;645262;215;31741;-75
2022/07/11 11:10:46;;;;;;;1.40;0.30;;;21.60;1.40;;;24.10;63.65;95952.61;646346;212;31650;-75
2022/07/11 11:13:27;;;;;;;0.50;0.40;;;22.60;1.40;;;24.15;62.88;95952.71;618687;226;31948;-75
2022/07/11 11:16:19;;;;;;;0.73;0.30;;;22.90;1.40;;;27.73;56.52;95942.60;646660;216;31480;-75
2022/07/11 11:19:01;;;;;;;0.50;0.30;;;26.10;1.40;;;31.27;49.88;95936.10;646418;216;31794;-75
2022/07/11 11:21:43;;;;;;;0.40;0.20;;;27.70;1.40;;;28.39;53.45;95938.48;646775;216;31534;-76
2022/07/11 11:24:31;;;;;;;0.40;0.20;;;24.70;1.40;;;30.12;51.84;95934.02;642176;216;31550;-78
2022/07/11 11:27:19;;;;;;;0.60;0.30;;;25.20;1.40;;;30.11;48.17;95941.44;647034;216;42265;-74
2022/07/11 11:30:00;;;;;;;0.80;0.30;;;24.50;1.40;;;29.33;50.56;95947.88;648019;216;31548;-76
2022/07/11 11:32:48;;;;;;;0.50;0.30;;;24.10;1.40;;;27.03;50.40;95950.28;646458;216;31800;-76
2022/07/11 11:36:01;;;;;;;0.40;0.20;;;22.50;1.40;;;25.65;54.21;95952.73;618709;222;32800;-75
2022/07/11 11:38:47;;;;;;;1.90;0.30;;;22.10;1.40;;;25.80;54.71;95948.13;618722;222;33123;-76
2022/07/11 11:41:28;;;;;;;0.40;0.30;;;22.50;1.40;;;26.08;53.93;95950.06;647786;212;31578;-76
2022/07/11 11:44:10;;;;;;;0.45;0.20;;;22.60;1.40;;;26.28;55.00;95947.55;646299;216;31484;-76
2022/07/11 11:46:52;;;;;;;0.80;0.32;;;22.60;1.40;;;25.78;54.17;95951.75;645958;216;32286;-76
2022/07/11 11:49:45;;;;;;;0.70;0.30;;;22.40;1.40;;;26.01;54.80;95954.81;648275;213;31458;-76
2022/07/11 11:52:32;;;;;;;0.40;0.30;;;22.50;1.40;;;25.74;53.78;95960.17;646443;216;31478;-75
2022/07/11 11:55:20;;;;;;;0.40;0.30;;;22.50;1.40;;;26.04;52.72;95957.75;619451;226;31977;-77
2022/07/11 11:58:08;;;;;;;0.50;0.30;;;22.60;1.40;;;25.59;53.75;95958.55;646389;216;42165;-75
2022/07/11 12:00:54;;;;;;;0.40;0.20;;;22.80;1.40;;;26.23;54.18;95956.70;646392;216;31557;-75
2022/07/11 12:06:23;;;;;;;0.40;0.20;;;23.70;1.40;;;25.26;55.08;95959.23;646615;216;31649;-76
2022/07/11 12:09:09;;;;;;;0.40;0.30;;;22.00;1.40;;;25.85;53.32;95955.05;645666;212;31509;-76
2022/07/11 12:12:43;;;;;;;0.50;0.40;;;22.50;1.40;;;26.58;53.44;95952.02;646891;216;31497;-76
2022/07/11 12:14:39;;;;;;;0.40;0.40;;;22.90;1.40;;;27.29;56.88;95952.64;646332;212;42117;-77
2022/07/11 12:17:23;;;;;;;0.60;0.35;;;23.70;1.40;;;28.42;51.18;95947.27;646604;216;31495;-77
2022/07/11 12:20:09;;;;;;;0.50;0.40;;;24.20;1.40;;;28.22;51.06;95941.23;647751;212;32367;-77
2022/07/11 12:22:57;;;;;;;0.47;0.28;;;23.90;1.40;;;27.56;50.69;95944.82;647357;216;33217;-75